OK94 weather

Sand Ridge Airpark Inc Airport
Collinsville, Oklahoma, United States

Public forecast

Using degrees Fahrenheit for public forecast. Weather courtesy of forecast.io.

METAR (pilot weather report)

Closest report is Tulsa International Airport, 10.2 nm (19.0 km) SSW. Retrieved 2019/04/22 04:53 UTC (45 minutes ago):

KTUL 220453Z 17014KT 10SM CLR 22/12 A2988 RMK AO2 SLP112 T02170117 $

TAF (pilot weather forecast)

Forecast is more than 12 hours old.

Closest forecast is Tulsa International Airport, 10.2 nm (19.0 km) SSW. Retrieved 2019/04/21 00:22 UTC (1 day ago):

TAF KTUL 212320Z 2200/2224 17024G32KT P6SM SCT150 FM220100 18015KT P6SM SCT150 FM221500 19012G22KT P6SM BKN025